Nearby METAR Reports

 

KORH - Worcester, Massachusetts, USA
Distance from station: NW 4mi, 7km
Updated: Wed, 26-Sep-2018 2:54am EDT
Overcast
Overcast
 Wind from SSW
Wind: SSW 10 mph , 17 km/h
Temperature: 66°F , 19°C
Dew Point: 66°F , 19°C
Humidity: 100%
Barometer: 30.09 inHg , 1019 hPa
Clouds: Overcast
Visibility: 10 miles , 16 km
Cloud details: Overcast 500 ft
2018/09/26 06:54 KORH 260654Z AUTO 21009KT 10SM OVC005 19/19 A3009 RMK AO2 CIG 003V010 SLP189 T01940194
KBOS - Boston, Massachusetts, USA
Distance from station: ENE 42mi, 68km
Updated: Wed, 26-Sep-2018 2:54am EDT
Overcast
Overcast
 Wind from SSW
Wind: SSW 5 mph , 7 km/h
Temperature: 70°F , 21°C
Dew Point: 66°F , 19°C
Humidity: 88%
Barometer: 30.08 inHg , 1018.6 hPa
Clouds: Overcast
Visibility: 10 miles , 16 km
Cloud details: Few Clouds 4500 ft
Overcast 6000 ft
2018/09/26 06:54 KBOS 260654Z 21004KT 10SM FEW045 OVC060 21/19 A3008 RMK AO2 SLP185 T02110194
 
KCQX - Chatham, Massachusetts, USA
Distance from station: SE 102mi, 164km
Updated: Wed, 26-Sep-2018 2:52am EDT
Light rain, Mist, Overcast
Light rain, Mist, Overcast
 Wind from S
Wind: S 10 mph , 17 km/h, Gust: 20 mph , 31 km/h
Temperature: 66°F , 19°C
Dew Point: 64°F , 18°C
Humidity: 94%
Barometer: 30.13 inHg , 1020.3 hPa
Summary: Light rain, Mist
Clouds: Overcast
Visibility: 5 miles , 8 km
Cloud details: Mostly cloudy 2100 ft
Mostly cloudy 3500 ft
Overcast 7500 ft
2018/09/26 06:52 KCQX 260652Z AUTO 17009G17KT 150V220 5SM -RA BR BKN021 BKN035 OVC075 19/18 A3013 RMK AO2 RAB00E12B50 SLP203 P0001 T01890183
KMVY - Marthas Vineyard, Massachusetts, USA
Distance from station: SE 84mi, 135km
Updated: Wed, 26-Sep-2018 3:35am EDT
Mist, Overcast
Mist, Overcast
 Wind from S
Wind: S 18 mph , 30 km/h
Temperature: 70°F , 21°C
Dew Point: 70°F , 21°C
Humidity: 100%
Barometer: 30.10 inHg , 1019.3 hPa
Summary: Mist
Clouds: Overcast
Visibility: 6 miles , 10 km
Cloud details: Mostly cloudy 500 ft
Mostly cloudy 1100 ft
Overcast 3500 ft
2018/09/26 07:35 KMVY 260735Z AUTO 18016KT 6SM BR BKN005 BKN011 OVC035 21/21 A3010 RMK AO2 RAB19E35 P0000 T02110211
 
KPVC - Provincetown, Massachusetts, USA
Distance from station: NNW 85mi, 136km
Updated: Wed, 26-Sep-2018 3:14am EDT
Overcast
Overcast
 Wind from S
Wind: S 12 mph , 19 km/h, Gust: 21 mph , 33 km/h
Temperature: 70°F , 21°C
Dew Point: 68°F , 20°C
Humidity: 94%
Barometer: 30.09 inHg , 1019 hPa
Clouds: Overcast
Visibility: 8 miles , 13 km
Cloud details: Overcast 900 ft
2018/09/26 07:14 KPVC 260714Z AUTO 19010G18KT 8SM OVC009 21/20 A3009 RMK AO2
KAQW - Savoy, Massachusetts, USA
Distance from station: NNW 66mi, 106km
Updated: Wed, 26-Sep-2018 2:52am EDT
Overcast
Overcast
 Wind from E
Wind: E 7 mph , 11 km/h
Temperature: 64°F , 18°C
Dew Point: 63°F , 17°C
Humidity: 94%
Barometer: 30.04 inHg , 1017.3 hPa
Clouds: Overcast
Visibility: 10 miles , 16 km
Cloud details: Mostly cloudy 1900 ft
Overcast 2500 ft
2018/09/26 06:52 KAQW 260652Z AUTO 10006KT 10SM BKN019 OVC025 18/17 A3004 RMK AO2 SLP173 T01830172
 
KIZG - Fryeburg, Maine, USA
Distance from station: NNE 133mi, 214km
Updated: Wed, 26-Sep-2018 3:20am EDT
Mist, Overcast
Mist, Overcast
 Wind from calm
Wind: Calm
Temperature: 55°F , 13°C
Dew Point: 54°F , 12°C
Humidity: 94%
Barometer: 30.06 inHg , 1017.9 hPa
Summary: Mist
Clouds: Overcast
Visibility: 5 miles , 8 km
Cloud details: Overcast 900 ft
2018/09/26 07:20 KIZG 260720Z AUTO 00000KT 5SM BR OVC009 13/12 A3006 RMK AO2 T01280122 $
KMWN - Mt Washington, New Hampshire, USA
Distance from station: NNE 146mi, 234km
Updated: Wed, 26-Sep-2018 2:50am EDT
Fog, Overcast
Fog, Overcast
 Wind from WSW
Wind: WSW 41 mph , 67 km/h, Gust: 55 mph , 89 km/h
Temperature: 52°F , 11°C
Dew Point: 52°F , 11°C
Humidity: 100%
Summary: Fog
Clouds: Overcast
Visibility: 0 miles , 0 km
Cloud details: Overcast 0 ft
2018/09/26 06:50 KMWN 260650Z 25036G48KT 0SM FG VV000 11/11 RMK SHRAE25
 
KBML - Berlin, New Hampshire, USA
Distance from station: NNE 160mi, 257km
Updated: Wed, 26-Sep-2018 3:11am EDT
Mostly cloudy
Mostly cloudy
 Wind from varies
Wind: varies 3 mph , 6 km/h
Temperature: 55°F , 13°C
Dew Point: 55°F , 13°C
Humidity: 100%
Barometer: 30.03 inHg , 1016.9 hPa
Clouds: Mostly cloudy
Visibility: 10 miles , 16 km
Cloud details: Few Clouds 300 ft
Partly cloudy 3300 ft
Mostly cloudy 4300 ft
2018/09/26 07:11 KBML 260711Z AUTO VRB03KT 10SM FEW003 SCT033 BKN043 13/13 A3003 RMK AO2 T01330133